MUHA/HAV METAR and TAF weather

Enter ICAO airport designator
Station Type Date Time Source
MUHA METAR 2019/04/22 23:55 UTC NOAA

MUHA 222355Z 06012KT 020V080 9000 FEW040 24/17 Q1017


Station Type Date Time Source
MUHA Decoded METAR 2019/04/22 23:55 UTC NOAA

Aeropuerto Jose Marti, Rancho-Boyeros, Habana, Cuba (MUHA) 22-59N 082-24W 75M
Apr 22, 2019 - 07:55 PM EDT / 2019.04.22 2355 UTC
Wind: from the ENE (060 degrees) at 14 MPH (12 KT) (direction variable):0
Visibility: 5 mile(s):0
Sky conditions: mostly clear
Temperature: 75 F (24 C)
Dew Point: 62 F (17 C)
Relative Humidity: 64%
Pressure (altimeter): 30.03 in. Hg (1017 hPa)
ob: MUHA 222355Z 06012KT 020V080 9000 FEW040 24/17 Q1017
cycle: 0

Station Type Date Time Source
MUHA TAF 2019/04/22 18:03 UTC NOAA

TAF MUHA 221700Z 2218/2318 07010KT 9000 SCT030
BECMG 2303/2305 VRB03KT
BECMG 2314/2316 07010KT

Example: see airport list